Saint-Gedeon, Canada
Current Conditions -  °F | °C
As of 9:00 PM on Sunday 21 Dec 2014 (Local Time) from CYRJ Reporting Station
Snow Showers Snow Showers  
Wind Chill:   Ceiling: 900
Heat Index:   Visibility: 12mi
Dew Point:   Wind: 0mph
Humidity: 85%   Direction: NA
Pressure: 30.36"   Gusts: NA
Location:  48.48°N, 71.78°W
Report Text: CYRJ 220200Z 00000KT 12SM -SHSN OVC009 M13/M15 A3036 RMK ST8 SLP300
Loading
Personal Weather Stations






























Interactive Weather Map New forecast layout! Learn more

10-Day Weather Forecast

Advertisements
Track Severe Weather on mobile